sensor_id;sensor_type;location;lat;lon;timestamp;pressure;altitude;pressure_sealevel;temperature;humidity
59829;BME280;45708;51.848;107.620;2023-02-28T00:00:41;96149.84;;;-15.90;67.11
59829;BME280;45708;51.848;107.620;2023-02-28T00:05:42;96156.78;;;-15.98;66.61
59829;BME280;45708;51.848;107.620;2023-02-28T00:10:43;96161.03;;;-16.02;66.59
59829;BME280;45708;51.848;107.620;2023-02-28T00:15:44;96157.50;;;-15.93;66.56
59829;BME280;45708;51.848;107.620;2023-02-28T00:20:45;96149.50;;;-15.75;66.16
59829;BME280;45708;51.848;107.620;2023-02-28T00:25:46;96148.59;;;-15.39;65.53
59829;BME280;45708;51.848;107.620;2023-02-28T00:30:47;96132.75;;;-13.67;63.78
59829;BME280;45708;51.848;107.620;2023-02-28T00:35:48;96131.53;;;-12.79;61.10
59829;BME280;45708;51.848;107.620;2023-02-28T00:40:48;96127.56;;;-12.87;62.14
59829;BME280;45708;51.848;107.620;2023-02-28T00:45:49;96127.19;;;-11.41;59.75
59829;BME280;45708;51.848;107.620;2023-02-28T00:50:50;96122.69;;;-9.97;57.98
59829;BME280;45708;51.848;107.620;2023-02-28T00:55:51;96127.22;;;-9.30;56.69
59829;BME280;45708;51.848;107.620;2023-02-28T01:00:52;96122.72;;;-8.24;55.58
59829;BME280;45708;51.848;107.620;2023-02-28T01:05:53;96136.22;;;-7.10;52.36
59829;BME280;45708;51.848;107.620;2023-02-28T01:10:54;96136.75;;;-6.59;51.07
59829;BME280;45708;51.848;107.620;2023-02-28T01:15:56;96134.88;;;-5.99;51.11
59829;BME280;45708;51.848;107.620;2023-02-28T01:20:56;96140.63;;;-6.24;48.90
59829;BME280;45708;51.848;107.620;2023-02-28T01:26:02;96139.88;;;-5.83;49.38
59829;BME280;45708;51.848;107.620;2023-02-28T01:31:05;96138.53;;;-4.54;47.42
59829;BME280;45708;51.848;107.620;2023-02-28T01:41:28;96141.13;;;-4.94;47.33
59829;BME280;45708;51.848;107.620;2023-02-28T01:46:31;96138.75;;;-4.06;45.26
59829;BME280;45708;51.848;107.620;2023-02-28T01:51:41;96124.91;;;-4.56;45.49
59829;BME280;45708;51.848;107.620;2023-02-28T01:56:54;96133.28;;;-4.40;43.59
59829;BME280;45708;51.848;107.620;2023-02-28T02:01:57;96132.84;;;-5.94;43.36
59829;BME280;45708;51.848;107.620;2023-02-28T02:06:58;96152.25;;;-8.00;45.74
59829;BME280;45708;51.848;107.620;2023-02-28T02:12:05;96148.66;;;-9.87;49.49
59829;BME280;45708;51.848;107.620;2023-02-28T02:32:45;96126.84;;;-10.91;51.19
59829;BME280;45708;51.848;107.620;2023-02-28T02:43:20;96049.28;;;-11.28;53.42
59829;BME280;45708;51.848;107.620;2023-02-28T02:48:27;96108.97;;;-10.32;52.78
59829;BME280;45708;51.848;107.620;2023-02-28T02:53:40;96109.78;;;-9.94;52.27
59829;BME280;45708;51.848;107.620;2023-02-28T02:58:43;96112.31;;;-9.39;52.09
59829;BME280;45708;51.848;107.620;2023-02-28T03:03:46;96102.78;;;-9.18;51.99
59829;BME280;45708;51.848;107.620;2023-02-28T03:08:48;96095.31;;;-8.38;52.40
59829;BME280;45708;51.848;107.620;2023-02-28T03:13:59;96097.56;;;-7.69;52.23
59829;BME280;45708;51.848;107.620;2023-02-28T03:24:50;96066.91;;;-6.52;51.00
59829;BME280;45708;51.848;107.620;2023-02-28T03:30:16;96071.50;;;-6.43;50.89
59829;BME280;45708;51.848;107.620;2023-02-28T03:35:31;96063.69;;;-6.27;51.10
59829;BME280;45708;51.848;107.620;2023-02-28T03:40:36;96064.06;;;-6.19;51.03
59829;BME280;45708;51.848;107.620;2023-02-28T03:45:39;96066.63;;;-6.19;50.50
59829;BME280;45708;51.848;107.620;2023-02-28T03:50:45;96073.97;;;-6.13;50.86
59829;BME280;45708;51.848;107.620;2023-02-28T03:55:51;96071.38;;;-5.98;51.77
59829;BME280;45708;51.848;107.620;2023-02-28T04:01:04;96071.63;;;-5.62;51.55
59829;BME280;45708;51.848;107.620;2023-02-28T04:06:12;96067.88;;;-5.43;49.97
59829;BME280;45708;51.848;107.620;2023-02-28T04:11:34;96061.53;;;-5.38;50.19
59829;BME280;45708;51.848;107.620;2023-02-28T04:16:38;96067.28;;;-5.20;51.02
59829;BME280;45708;51.848;107.620;2023-02-28T04:21:50;96073.34;;;-5.08;50.90
59829;BME280;45708;51.848;107.620;2023-02-28T04:26:53;96059.19;;;-5.28;50.28
59829;BME280;45708;51.848;107.620;2023-02-28T04:31:55;96056.72;;;-5.30;50.72
59829;BME280;45708;51.848;107.620;2023-02-28T04:36:57;96050.59;;;-5.02;49.80
59829;BME280;45708;51.848;107.620;2023-02-28T04:41:58;96054.91;;;-5.15;49.77
59829;BME280;45708;51.848;107.620;2023-02-28T04:46:59;96057.84;;;-4.94;50.56
59829;BME280;45708;51.848;107.620;2023-02-28T04:52:00;96024.25;;;-4.80;49.67
59829;BME280;45708;51.848;107.620;2023-02-28T04:57:01;96050.84;;;-4.79;50.08
59829;BME280;45708;51.848;107.620;2023-02-28T05:02:03;96039.50;;;-4.90;49.49
59829;BME280;45708;51.848;107.620;2023-02-28T05:07:04;96036.69;;;-5.12;48.69
59829;BME280;45708;51.848;107.620;2023-02-28T05:12:05;96044.19;;;-5.48;49.13
59829;BME280;45708;51.848;107.620;2023-02-28T05:17:07;96030.28;;;-5.46;49.64
59829;BME280;45708;51.848;107.620;2023-02-28T05:22:15;95995.28;;;-5.48;49.66
59829;BME280;45708;51.848;107.620;2023-02-28T05:27:16;96022.88;;;-5.11;49.65
59829;BME280;45708;51.848;107.620;2023-02-28T05:32:17;96008.78;;;-4.80;50.25
59829;BME280;45708;51.848;107.620;2023-02-28T05:37:18;95998.25;;;-4.51;48.98
59829;BME280;45708;51.848;107.620;2023-02-28T05:42:19;96009.09;;;-4.59;49.42
59829;BME280;45708;51.848;107.620;2023-02-28T05:47:20;95995.78;;;-4.40;49.03
59829;BME280;45708;51.848;107.620;2023-02-28T05:52:21;95998.41;;;-4.16;48.87
59829;BME280;45708;51.848;107.620;2023-02-28T05:57:22;95998.03;;;-4.36;49.01
59829;BME280;45708;51.848;107.620;2023-02-28T06:02:23;95997.22;;;-4.36;49.41
59829;BME280;45708;51.848;107.620;2023-02-28T06:07:24;95994.41;;;-4.20;48.94
59829;BME280;45708;51.848;107.620;2023-02-28T06:12:25;95979.28;;;-3.77;48.86
59829;BME280;45708;51.848;107.620;2023-02-28T06:17:26;95967.31;;;-3.54;48.25
59829;BME280;45708;51.848;107.620;2023-02-28T06:22:28;95956.59;;;-3.85;49.00
59829;BME280;45708;51.848;107.620;2023-02-28T06:27:30;95970.50;;;-3.99;49.06
59829;BME280;45708;51.848;107.620;2023-02-28T06:32:31;95966.09;;;-3.85;49.25
59829;BME280;45708;51.848;107.620;2023-02-28T06:37:32;95971.06;;;-3.58;49.37
59829;BME280;45708;51.848;107.620;2023-02-28T06:42:33;95975.19;;;-3.80;49.01
59829;BME280;45708;51.848;107.620;2023-02-28T06:47:36;95964.84;;;-3.80;49.42
59829;BME280;45708;51.848;107.620;2023-02-28T06:52:37;95958.72;;;-3.55;49.46
59829;BME280;45708;51.848;107.620;2023-02-28T06:57:38;95965.59;;;-3.67;50.03
59829;BME280;45708;51.848;107.620;2023-02-28T07:02:39;95951.75;;;-3.65;49.69
59829;BME280;45708;51.848;107.620;2023-02-28T07:07:40;95964.59;;;-3.53;49.29
59829;BME280;45708;51.848;107.620;2023-02-28T07:12:41;95967.56;;;-3.46;48.63
59829;BME280;45708;51.848;107.620;2023-02-28T07:17:42;95956.50;;;-3.48;48.22
59829;BME280;45708;51.848;107.620;2023-02-28T07:22:43;95952.13;;;-3.24;47.95
59829;BME280;45708;51.848;107.620;2023-02-28T07:27:44;95960.47;;;-3.31;47.32
59829;BME280;45708;51.848;107.620;2023-02-28T07:32:45;95947.88;;;-3.36;47.94
59829;BME280;45708;51.848;107.620;2023-02-28T07:37:46;95952.78;;;-3.44;47.56
59829;BME280;45708;51.848;107.620;2023-02-28T07:42:47;95941.97;;;-3.49;47.52
59829;BME280;45708;51.848;107.620;2023-02-28T07:47:48;95944.28;;;-3.57;47.21
59829;BME280;45708;51.848;107.620;2023-02-28T07:52:49;95937.19;;;-3.67;47.63
59829;BME280;45708;51.848;107.620;2023-02-28T07:57:49;95928.63;;;-3.67;46.94
59829;BME280;45708;51.848;107.620;2023-02-28T08:02:50;95942.09;;;-3.75;47.33
59829;BME280;45708;51.848;107.620;2023-02-28T08:07:52;95945.16;;;-3.70;46.67
59829;BME280;45708;51.848;107.620;2023-02-28T08:12:54;95930.78;;;-3.85;47.01
59829;BME280;45708;51.848;107.620;2023-02-28T08:17:55;95938.47;;;-3.96;46.67
59829;BME280;45708;51.848;107.620;2023-02-28T08:22:55;95948.28;;;-4.01;46.13
59829;BME280;45708;51.848;107.620;2023-02-28T08:27:56;95946.72;;;-4.28;44.64
59829;BME280;45708;51.848;107.620;2023-02-28T08:32:57;95951.44;;;-4.58;45.78
59829;BME280;45708;51.848;107.620;2023-02-28T08:37:58;95960.28;;;-4.37;46.09
59829;BME280;45708;51.848;107.620;2023-02-28T08:42:59;95956.56;;;-4.33;46.05
59829;BME280;45708;51.848;107.620;2023-02-28T08:48:00;95965.44;;;-4.37;45.93
59829;BME280;45708;51.848;107.620;2023-02-28T08:53:01;95968.78;;;-4.60;46.80
59829;BME280;45708;51.848;107.620;2023-02-28T08:58:02;95967.09;;;-4.61;46.70
59829;BME280;45708;51.848;107.620;2023-02-28T09:03:02;95953.91;;;-4.69;47.34
59829;BME280;45708;51.848;107.620;2023-02-28T09:08:03;95952.91;;;-4.79;47.35
59829;BME280;45708;51.848;107.620;2023-02-28T09:13:06;95962.91;;;-4.87;47.60
59829;BME280;45708;51.848;107.620;2023-02-28T09:18:07;95956.84;;;-4.99;48.48
59829;BME280;45708;51.848;107.620;2023-02-28T09:23:09;95970.94;;;-5.17;48.47
59829;BME280;45708;51.848;107.620;2023-02-28T09:28:10;95969.41;;;-5.20;48.66
59829;BME280;45708;51.848;107.620;2023-02-28T09:33:12;95966.28;;;-5.25;48.27
59829;BME280;45708;51.848;107.620;2023-02-28T09:38:14;95966.69;;;-5.31;49.01
59829;BME280;45708;51.848;107.620;2023-02-28T09:43:15;95964.41;;;-5.36;48.99
59829;BME280;45708;51.848;107.620;2023-02-28T09:48:39;95975.28;;;-5.58;49.84
59829;BME280;45708;51.848;107.620;2023-02-28T09:53:41;95973.50;;;-5.70;49.57
59829;BME280;45708;51.848;107.620;2023-02-28T09:58:54;95975.66;;;-5.76;50.65
59829;BME280;45708;51.848;107.620;2023-02-28T10:04:00;95973.97;;;-5.90;50.27
59829;BME280;45708;51.848;107.620;2023-02-28T10:09:13;95970.47;;;-6.16;50.38
59829;BME280;45708;51.848;107.620;2023-02-28T10:14:21;95980.88;;;-6.46;51.06
59829;BME280;45708;51.848;107.620;2023-02-28T10:19:56;95959.97;;;-6.54;51.98
59829;BME280;45708;51.848;107.620;2023-02-28T10:24:59;95970.34;;;-6.56;51.01
59829;BME280;45708;51.848;107.620;2023-02-28T10:30:02;95965.56;;;-6.62;51.52
59829;BME280;45708;51.848;107.620;2023-02-28T10:45:20;95986.44;;;-6.81;52.01
59829;BME280;45708;51.848;107.620;2023-02-28T10:55:29;95993.22;;;-6.80;51.87
59829;BME280;45708;51.848;107.620;2023-02-28T11:00:35;95991.72;;;-6.84;52.24
59829;BME280;45708;51.848;107.620;2023-02-28T11:05:36;95981.91;;;-6.91;53.06
59829;BME280;45708;51.848;107.620;2023-02-28T11:10:37;95987.16;;;-6.79;52.79
59829;BME280;45708;51.848;107.620;2023-02-28T11:15:39;96003.84;;;-6.71;52.50
59829;BME280;45708;51.848;107.620;2023-02-28T11:20:40;95994.69;;;-6.76;52.04
59829;BME280;45708;51.848;107.620;2023-02-28T11:25:50;96003.31;;;-6.77;52.49
59829;BME280;45708;51.848;107.620;2023-02-28T11:31:17;95997.78;;;-6.85;53.02
59829;BME280;45708;51.848;107.620;2023-02-28T11:52:27;96006.41;;;-7.00;53.40
59829;BME280;45708;51.848;107.620;2023-02-28T12:08:45;95992.78;;;-7.30;53.87
59829;BME280;45708;51.848;107.620;2023-02-28T12:30:08;96001.88;;;-8.01;54.71
59829;BME280;45708;51.848;107.620;2023-02-28T12:35:21;96006.00;;;-8.14;54.79
59829;BME280;45708;51.848;107.620;2023-02-28T12:41:13;96009.22;;;-8.26;54.92
59829;BME280;45708;51.848;107.620;2023-02-28T12:45:59;96005.72;;;-8.39;54.85
59829;BME280;45708;51.848;107.620;2023-02-28T12:51:02;96014.53;;;-8.61;55.71
59829;BME280;45708;51.848;107.620;2023-02-28T12:56:31;96001.16;;;-8.83;55.62
59829;BME280;45708;51.848;107.620;2023-02-28T13:02:01;96008.91;;;-9.00;56.51
59829;BME280;45708;51.848;107.620;2023-02-28T13:07:20;95998.06;;;-9.23;55.73
59829;BME280;45708;51.848;107.620;2023-02-28T13:12:29;95994.72;;;-9.40;55.83
59829;BME280;45708;51.848;107.620;2023-02-28T13:17:32;95999.06;;;-9.42;56.33
59829;BME280;45708;51.848;107.620;2023-02-28T13:22:42;96006.38;;;-9.52;56.80
59829;BME280;45708;51.848;107.620;2023-02-28T13:27:44;95999.28;;;-9.64;56.21
59829;BME280;45708;51.848;107.620;2023-02-28T13:32:45;96000.81;;;-9.77;56.80
59829;BME280;45708;51.848;107.620;2023-02-28T13:37:47;96005.13;;;-9.97;58.08
59829;BME280;45708;51.848;107.620;2023-02-28T13:42:49;95998.41;;;-10.17;58.26
59829;BME280;45708;51.848;107.620;2023-02-28T13:48:01;95998.16;;;-10.29;58.10
59829;BME280;45708;51.848;107.620;2023-02-28T13:58:33;96006.06;;;-10.53;57.41
59829;BME280;45708;51.848;107.620;2023-02-28T14:03:57;96011.97;;;-10.71;58.27
59829;BME280;45708;51.848;107.620;2023-02-28T14:09:21;96011.81;;;-10.87;59.00
59829;BME280;45708;51.848;107.620;2023-02-28T14:19:37;96015.00;;;-11.00;58.79
59829;BME280;45708;51.848;107.620;2023-02-28T14:35:50;96004.81;;;-11.21;59.33
59829;BME280;45708;51.848;107.620;2023-02-28T14:40:57;96002.25;;;-11.21;59.37
59829;BME280;45708;51.848;107.620;2023-02-28T14:46:04;95997.31;;;-11.25;58.84
59829;BME280;45708;51.848;107.620;2023-02-28T14:51:09;95988.97;;;-11.29;59.04
59829;BME280;45708;51.848;107.620;2023-02-28T14:56:23;95989.59;;;-11.24;59.10
59829;BME280;45708;51.848;107.620;2023-02-28T15:01:26;95984.03;;;-11.32;59.47
59829;BME280;45708;51.848;107.620;2023-02-28T15:06:27;95981.59;;;-11.35;59.55
59829;BME280;45708;51.848;107.620;2023-02-28T15:11:28;95983.69;;;-11.45;59.04
59829;BME280;45708;51.848;107.620;2023-02-28T15:16:39;95984.28;;;-11.58;59.75
59829;BME280;45708;51.848;107.620;2023-02-28T15:21:44;95982.88;;;-11.66;60.31
59829;BME280;45708;51.848;107.620;2023-02-28T15:26:56;95971.78;;;-11.64;60.29
59829;BME280;45708;51.848;107.620;2023-02-28T15:32:04;95967.44;;;-11.62;60.12
59829;BME280;45708;51.848;107.620;2023-02-28T15:42:30;95963.63;;;-11.73;59.94
59829;BME280;45708;51.848;107.620;2023-02-28T15:47:32;95971.91;;;-11.68;59.93
59829;BME280;45708;51.848;107.620;2023-02-28T15:52:38;95969.44;;;-11.69;59.98
59829;BME280;45708;51.848;107.620;2023-02-28T15:57:40;95968.25;;;-11.60;60.26
59829;BME280;45708;51.848;107.620;2023-02-28T16:02:41;95969.91;;;-11.59;60.14
59829;BME280;45708;51.848;107.620;2023-02-28T16:07:43;95971.09;;;-11.68;60.59
59829;BME280;45708;51.848;107.620;2023-02-28T16:12:44;95972.19;;;-11.74;60.72
59829;BME280;45708;51.848;107.620;2023-02-28T16:17:45;95980.72;;;-11.75;60.51
59829;BME280;45708;51.848;107.620;2023-02-28T16:22:46;95976.78;;;-11.82;61.45
59829;BME280;45708;51.848;107.620;2023-02-28T16:27:49;95960.22;;;-11.92;61.38
59829;BME280;45708;51.848;107.620;2023-02-28T16:32:54;95964.34;;;-11.89;62.38
59829;BME280;45708;51.848;107.620;2023-02-28T16:37:55;95975.25;;;-11.86;61.27
59829;BME280;45708;51.848;107.620;2023-02-28T16:42:58;95972.13;;;-11.92;61.00
59829;BME280;45708;51.848;107.620;2023-02-28T16:48:00;95965.28;;;-12.12;60.88
59829;BME280;45708;51.848;107.620;2023-02-28T16:53:02;95967.66;;;-12.30;61.36
59829;BME280;45708;51.848;107.620;2023-02-28T16:58:05;95964.81;;;-12.44;61.77
59829;BME280;45708;51.848;107.620;2023-02-28T17:03:14;95957.53;;;-12.53;61.79
59829;BME280;45708;51.848;107.620;2023-02-28T17:08:21;95946.47;;;-12.52;62.00
59829;BME280;45708;51.848;107.620;2023-02-28T17:13:22;95938.78;;;-12.50;61.77
59829;BME280;45708;51.848;107.620;2023-02-28T17:18:25;95936.47;;;-12.56;61.92
59829;BME280;45708;51.848;107.620;2023-02-28T17:23:27;95933.22;;;-12.60;61.97
59829;BME280;45708;51.848;107.620;2023-02-28T17:28:28;95930.84;;;-12.65;61.89
59829;BME280;45708;51.848;107.620;2023-02-28T17:33:29;95930.38;;;-12.74;61.75
59829;BME280;45708;51.848;107.620;2023-02-28T17:38:32;95922.66;;;-12.95;61.75
59829;BME280;45708;51.848;107.620;2023-02-28T17:43:33;95922.44;;;-13.12;61.87
59829;BME280;45708;51.848;107.620;2023-02-28T17:48:34;95923.34;;;-13.13;62.03
59829;BME280;45708;51.848;107.620;2023-02-28T17:53:35;95923.69;;;-13.22;62.84
59829;BME280;45708;51.848;107.620;2023-02-28T17:58:36;95911.31;;;-13.31;62.40
59829;BME280;45708;51.848;107.620;2023-02-28T18:03:37;95911.44;;;-13.34;63.18
59829;BME280;45708;51.848;107.620;2023-02-28T18:08:37;95912.09;;;-13.29;62.85
59829;BME280;45708;51.848;107.620;2023-02-28T18:13:38;95904.91;;;-13.18;62.34
59829;BME280;45708;51.848;107.620;2023-02-28T18:18:41;95889.34;;;-13.10;63.27
59829;BME280;45708;51.848;107.620;2023-02-28T18:23:43;95885.09;;;-13.10;62.09
59829;BME280;45708;51.848;107.620;2023-02-28T18:28:45;95882.66;;;-13.13;63.18
59829;BME280;45708;51.848;107.620;2023-02-28T18:33:50;95873.31;;;-13.12;62.58
59829;BME280;45708;51.848;107.620;2023-02-28T18:38:51;95880.88;;;-13.11;62.76
59829;BME280;45708;51.848;107.620;2023-02-28T18:43:52;95877.34;;;-13.07;62.69
59829;BME280;45708;51.848;107.620;2023-02-28T18:48:53;95877.34;;;-13.07;63.02
59829;BME280;45708;51.848;107.620;2023-02-28T18:53:54;95866.91;;;-13.21;62.98
59829;BME280;45708;51.848;107.620;2023-02-28T18:58:55;95866.84;;;-13.19;63.08
59829;BME280;45708;51.848;107.620;2023-02-28T19:03:57;95872.06;;;-13.24;63.68
59829;BME280;45708;51.848;107.620;2023-02-28T19:09:00;95859.97;;;-13.39;63.70
59829;BME280;45708;51.848;107.620;2023-02-28T19:14:01;95857.09;;;-13.54;64.29
59829;BME280;45708;51.848;107.620;2023-02-28T19:19:02;95842.50;;;-13.72;63.81
59829;BME280;45708;51.848;107.620;2023-02-28T19:24:03;95833.34;;;-13.76;63.52
59829;BME280;45708;51.848;107.620;2023-02-28T19:29:04;95833.69;;;-13.87;63.62
59829;BME280;45708;51.848;107.620;2023-02-28T19:34:05;95838.66;;;-13.84;64.54
59829;BME280;45708;51.848;107.620;2023-02-28T19:39:06;95838.19;;;-13.93;64.11
59829;BME280;45708;51.848;107.620;2023-02-28T19:44:07;95835.41;;;-13.87;64.13
59829;BME280;45708;51.848;107.620;2023-02-28T19:49:08;95836.34;;;-13.90;64.69
59829;BME280;45708;51.848;107.620;2023-02-28T19:54:08;95830.56;;;-13.93;63.92
59829;BME280;45708;51.848;107.620;2023-02-28T19:59:09;95808.00;;;-14.01;64.62
59829;BME280;45708;51.848;107.620;2023-02-28T20:04:10;95814.44;;;-13.92;65.29
59829;BME280;45708;51.848;107.620;2023-02-28T20:09:11;95804.00;;;-13.85;63.93
59829;BME280;45708;51.848;107.620;2023-02-28T20:14:12;95759.00;;;-14.04;64.07
59829;BME280;45708;51.848;107.620;2023-02-28T20:19:13;95791.31;;;-13.85;64.17
59829;BME280;45708;51.848;107.620;2023-02-28T20:24:14;95793.78;;;-13.83;64.93
59829;BME280;45708;51.848;107.620;2023-02-28T20:29:15;95800.75;;;-13.88;64.95
59829;BME280;45708;51.848;107.620;2023-02-28T20:34:16;95788.16;;;-13.91;64.85
59829;BME280;45708;51.848;107.620;2023-02-28T20:39:17;95790.59;;;-13.88;65.48
59829;BME280;45708;51.848;107.620;2023-02-28T20:44:17;95776.81;;;-13.81;64.72
59829;BME280;45708;51.848;107.620;2023-02-28T20:49:18;95772.38;;;-13.76;65.25
59829;BME280;45708;51.848;107.620;2023-02-28T20:54:19;95752.72;;;-13.71;65.22
59829;BME280;45708;51.848;107.620;2023-02-28T20:59:20;95765.34;;;-13.69;64.63
59829;BME280;45708;51.848;107.620;2023-02-28T21:04:22;95774.91;;;-13.76;65.09
59829;BME280;45708;51.848;107.620;2023-02-28T21:09:22;95772.31;;;-13.74;65.30
59829;BME280;45708;51.848;107.620;2023-02-28T21:14:23;95761.28;;;-13.73;65.09
59829;BME280;45708;51.848;107.620;2023-02-28T21:19:24;95766.41;;;-13.75;65.82
59829;BME280;45708;51.848;107.620;2023-02-28T21:24:25;95746.22;;;-13.78;65.61
59829;BME280;45708;51.848;107.620;2023-02-28T21:29:25;95752.06;;;-13.76;64.62
59829;BME280;45708;51.848;107.620;2023-02-28T21:34:26;95748.56;;;-13.73;65.03
59829;BME280;45708;51.848;107.620;2023-02-28T21:39:27;95745.47;;;-13.82;65.57
59829;BME280;45708;51.848;107.620;2023-02-28T21:44:29;95747.84;;;-13.99;66.25
59829;BME280;45708;51.848;107.620;2023-02-28T21:49:30;95751.63;;;-14.10;66.01
59829;BME280;45708;51.848;107.620;2023-02-28T21:54:31;95744.56;;;-14.26;65.91
59829;BME280;45708;51.848;107.620;2023-02-28T21:59:32;95745.81;;;-14.37;66.66
59829;BME280;45708;51.848;107.620;2023-02-28T22:04:33;95739.94;;;-14.38;65.17
59829;BME280;45708;51.848;107.620;2023-02-28T22:09:33;95737.06;;;-14.52;65.64
59829;BME280;45708;51.848;107.620;2023-02-28T22:14:34;95739.44;;;-14.72;66.02
59829;BME280;45708;51.848;107.620;2023-02-28T22:19:35;95737.75;;;-14.72;66.55
59829;BME280;45708;51.848;107.620;2023-02-28T22:24:36;95725.88;;;-14.71;66.13
59829;BME280;45708;51.848;107.620;2023-02-28T22:29:38;95727.16;;;-14.85;67.99
59829;BME280;45708;51.848;107.620;2023-02-28T22:34:39;95716.19;;;-15.10;67.69
59829;BME280;45708;51.848;107.620;2023-02-28T22:39:40;95717.88;;;-15.35;69.24
59829;BME280;45708;51.848;107.620;2023-02-28T22:44:41;95722.09;;;-15.36;69.03
59829;BME280;45708;51.848;107.620;2023-02-28T22:49:42;95722.97;;;-15.37;68.87
59829;BME280;45708;51.848;107.620;2023-02-28T22:54:43;95715.47;;;-15.40;69.66
59829;BME280;45708;51.848;107.620;2023-02-28T22:59:44;95720.66;;;-15.45;70.09
59829;BME280;45708;51.848;107.620;2023-02-28T23:04:45;95717.19;;;-15.41;70.25
59829;BME280;45708;51.848;107.620;2023-02-28T23:09:49;95708.59;;;-15.37;70.99
59829;BME280;45708;51.848;107.620;2023-02-28T23:14:52;95706.53;;;-15.25;71.20
59829;BME280;45708;51.848;107.620;2023-02-28T23:19:53;95707.25;;;-15.20;71.33
59829;BME280;45708;51.848;107.620;2023-02-28T23:24:54;95712.31;;;-15.20;70.90
59829;BME280;45708;51.848;107.620;2023-02-28T23:29:55;95708.38;;;-15.04;69.33
59829;BME280;45708;51.848;107.620;2023-02-28T23:34:56;95727.09;;;-15.08;71.84
59829;BME280;45708;51.848;107.620;2023-02-28T23:39:56;95709.19;;;-15.28;73.07
59829;BME280;45708;51.848;107.620;2023-02-28T23:44:57;95697.94;;;-15.20;72.05
59829;BME280;45708;51.848;107.620;2023-02-28T23:49:58;95701.34;;;-15.21;71.53
59829;BME280;45708;51.848;107.620;2023-02-28T23:54:59;95706.22;;;-15.15;72.17
